Crab Orchard, Tennessee
Current Conditions -  °F | °C
As of 12:53 PM on Saturday 25 Oct 2014 (Local Time) from KCSV Reporting Station
Broken Clouds Broken Clouds  
Wind Chill: 67°   Ceiling: 3500
Heat Index: 67°   Visibility: 10mi
Dew Point: 48°   Wind: 5mph
Humidity: 51%   Direction: 260°W
Pressure: 30.08"   Gusts: NA
Location:  35.91°N, 84.88°W
Report Text: KCSV 251753Z AUTO 26004KT 10SM FEW030 BKN035 19/09 A3008 RMK AO2 SLP179 T01940089 10200 20050 58009
Loading
Personal Weather Stations






























Interactive Weather Map
Tropical Storm Tracking
New forecast layout! Learn more

10-Day Weather Forecast

Advertisements
Track Severe Weather on mobile